Terminal Aerodrome Forecast
Issued by NWS Goodland, KS

Home | Current Version | Previous Version | Text Only | Print | Product List | Glossary On
Versions: 1 2 3 4 5 6 7 8 9 10 11 12 13 14
000
FTUS43 KGLD 040027 AAA
TAFGLD
TAF AMD
KGLD 040027Z 0400/0424 15011G16KT P6SM VCTS BKN080CB
      TEMPO 0400/0402 24013KT
     FM040200 15009KT P6SM BKN250
     FM040800 19008KT P6SM FEW010 SCT030 BKN200
     FM041800 11006KT P6SM BKN250=

USA.gov is the U.S. government's official web portal to all federal, state and local government web resources and services.